Aviation Digital Data Service (ADDS)

Output produced by TAFs form (1532 UTC 25 June 2017)
found at http://aviationweather.gov/adds/tafs/
 
KSAF 251525Z 2515/2612 14011KT P6SM FEW025 SCT035 
     TEMPO 2515/2517 BKN025 
     FM251700 15010KT P6SM FEW050 
     FM252200 17012G20KT P6SM VCSH SCT080 BKN150 
     FM260200 14014G22KT P6SM SCT080 SCT150